createdAt,value
2023-04-23T00:00:00.364Z,11.9
2023-04-23T00:04:00.455Z,11.9
2023-04-23T00:08:00.353Z,11.9
2023-04-23T00:12:00.351Z,12.2
2023-04-23T00:16:00.441Z,12.2
2023-04-23T00:20:00.363Z,12.2
2023-04-23T00:24:00.378Z,12.2
2023-04-23T00:28:00.368Z,12.2
2023-04-23T00:32:00.387Z,12.2
2023-04-23T00:36:00.331Z,12.2
2023-04-23T00:40:00.345Z,12.4
2023-04-23T00:44:00.368Z,12.4
2023-04-23T00:48:00.485Z,12.4
2023-04-23T00:52:00.361Z,12.4
2023-04-23T00:56:00.364Z,12.4
2023-04-23T01:00:00.372Z,12.4
2023-04-23T01:04:00.455Z,12.4
2023-04-23T01:08:00.403Z,12.4
2023-04-23T01:12:00.390Z,12.4
2023-04-23T01:16:00.355Z,12.4
2023-04-23T01:20:00.361Z,12.4
2023-04-23T01:24:00.347Z,12.4
2023-04-23T01:28:00.377Z,12.4
2023-04-23T01:32:00.349Z,12.4
2023-04-23T01:36:00.354Z,12.4
2023-04-23T01:40:00.383Z,12.4
2023-04-23T01:44:00.370Z,11.9
2023-04-23T01:48:00.387Z,11.8
2023-04-23T01:52:00.360Z,11.8
2023-04-23T01:56:00.367Z,11.8
2023-04-23T02:00:00.361Z,11.8
2023-04-23T02:04:00.426Z,11.8
2023-04-23T02:08:00.361Z,11.8
2023-04-23T02:12:00.395Z,11.8
2023-04-23T02:16:00.371Z,11.8
2023-04-23T02:20:00.357Z,11.8
2023-04-23T02:24:00.365Z,11.8
2023-04-23T02:28:00.334Z,11.8
2023-04-23T02:32:00.413Z,11.8
2023-04-23T02:36:00.323Z,11.8
2023-04-23T02:40:00.376Z,11.8
2023-04-23T02:44:00.338Z,11.8
2023-04-23T02:48:00.389Z,11.8
2023-04-23T02:52:00.347Z,11.8
2023-04-23T02:56:00.338Z,11.8
2023-04-23T03:00:00.377Z,11.8
2023-04-23T03:04:00.417Z,11.8
2023-04-23T03:08:00.339Z,11.3
2023-04-23T03:12:00.337Z,11.1
2023-04-23T03:16:00.345Z,11.0
2023-04-23T03:20:00.354Z,10.7
2023-04-23T03:24:00.327Z,10.6
2023-04-23T03:28:00.355Z,10.5
2023-04-23T03:32:00.334Z,10.5
2023-04-23T03:36:00.380Z,10.3
2023-04-23T03:40:00.349Z,10.3
2023-04-23T03:44:00.343Z,10.3
2023-04-23T03:48:00.354Z,10.3
2023-04-23T03:52:00.382Z,10.3
2023-04-23T03:56:00.367Z,10.3
2023-04-23T04:00:00.359Z,10.3
2023-04-23T04:04:00.572Z,10.3
2023-04-23T04:08:00.336Z,10.3
2023-04-23T04:12:00.358Z,10.3
2023-04-23T04:16:00.399Z,10.3
2023-04-23T04:20:00.373Z,10.2
2023-04-23T04:24:00.344Z,10.3
2023-04-23T04:28:00.387Z,10.3
2023-04-23T04:32:00.367Z,10.3
2023-04-23T04:36:00.362Z,10.4
2023-04-23T04:40:00.332Z,10.4
2023-04-23T04:44:00.372Z,10.6
2023-04-23T04:48:00.349Z,10.7
2023-04-23T04:52:00.371Z,10.8
2023-04-23T04:56:00.402Z,10.8
2023-04-23T05:00:00.358Z,11.0
2023-04-23T05:04:00.614Z,11.0
2023-04-23T05:08:00.349Z,11.1
2023-04-23T05:12:00.370Z,11.3
2023-04-23T05:16:00.385Z,11.4
2023-04-23T05:20:00.329Z,11.6
2023-04-23T05:24:00.374Z,11.8
2023-04-23T05:28:00.337Z,11.9
2023-04-23T05:32:00.389Z,11.9
2023-04-23T05:36:00.349Z,11.9
2023-04-23T05:40:00.361Z,12.4
2023-04-23T05:44:00.316Z,12.4
2023-04-23T05:48:00.381Z,12.6
2023-04-23T05:52:00.330Z,12.6
2023-04-23T05:56:00.362Z,12.7
2023-04-23T06:00:00.333Z,12.8
2023-04-23T06:04:00.488Z,13.0
2023-04-23T06:08:00.372Z,13.2
2023-04-23T06:12:00.345Z,13.3
2023-04-23T06:16:00.375Z,13.3
2023-04-23T06:20:00.345Z,13.3
2023-04-23T06:24:00.387Z,13.3
2023-04-23T06:28:00.393Z,13.3
2023-04-23T06:32:00.360Z,13.3
2023-04-23T06:36:00.314Z,13.3
2023-04-23T06:40:00.327Z,13.3
2023-04-23T06:44:00.337Z,13.3
2023-04-23T06:48:00.381Z,13.3
2023-04-23T06:52:00.338Z,13.3
2023-04-23T06:56:00.334Z,13.3
2023-04-23T07:00:00.395Z,13.3
2023-04-23T07:04:00.396Z,13.3
2023-04-23T07:08:00.351Z,13.3
2023-04-23T07:12:00.346Z,13.3
2023-04-23T07:16:00.340Z,13.3
2023-04-23T07:20:00.342Z,13.3
2023-04-23T07:24:00.329Z,13.3
2023-04-23T07:28:00.379Z,13.3
2023-04-23T07:32:00.372Z,13.3
2023-04-23T07:36:00.348Z,13.3
2023-04-23T07:40:00.363Z,13.3
2023-04-23T07:44:00.388Z,13.3
2023-04-23T07:48:00.456Z,13.3
2023-04-23T07:52:00.373Z,13.3
2023-04-23T07:56:00.358Z,13.3
2023-04-23T08:00:00.374Z,13.3
2023-04-23T08:04:00.803Z,13.3
2023-04-23T08:08:00.377Z,13.6
2023-04-23T08:12:00.365Z,13.6
2023-04-23T08:16:00.389Z,13.8
2023-04-23T08:20:00.353Z,13.8
2023-04-23T08:24:00.424Z,13.9
2023-04-23T08:28:00.343Z,13.9
2023-04-23T08:32:00.371Z,14.1
2023-04-23T08:36:00.345Z,14.1
2023-04-23T08:40:00.348Z,14.1
2023-04-23T08:44:00.361Z,14.9
2023-04-23T08:48:02.168Z,15.5
2023-04-23T08:52:00.336Z,15.5
2023-04-23T08:56:00.352Z,15.5
2023-04-23T09:00:00.359Z,15.9
2023-04-23T09:04:00.381Z,15.9
2023-04-23T09:08:00.358Z,15.9
2023-04-23T09:12:00.363Z,15.8
2023-04-23T09:16:00.368Z,15.8
2023-04-23T09:20:00.404Z,16.4
2023-04-23T09:24:00.419Z,16.4
2023-04-23T09:28:00.362Z,16.4
2023-04-23T09:32:00.460Z,17.2
2023-04-23T09:36:00.417Z,17.2
2023-04-23T09:40:00.409Z,17.2
2023-04-23T09:44:00.433Z,17.2
2023-04-23T09:48:00.525Z,17.2
2023-04-23T09:52:00.419Z,17.2
2023-04-23T09:56:00.425Z,17.2
2023-04-23T10:00:13.617Z,17.2
2023-04-23T10:04:00.645Z,17.2
2023-04-23T10:08:00.397Z,17.2
2023-04-23T10:12:00.450Z,17.2
2023-04-23T10:16:10.141Z,17.2
2023-04-23T10:20:00.458Z,17.2
2023-04-23T10:24:00.383Z,17.2
2023-04-23T10:28:00.378Z,17.2
2023-04-23T10:32:00.408Z,17.2
2023-04-23T10:36:00.368Z,17.2
2023-04-23T10:40:00.355Z,17.2
2023-04-23T10:44:00.395Z,17.2
2023-04-23T10:48:00.505Z,17.2
2023-04-23T10:52:18.523Z,17.2
2023-04-23T10:56:00.338Z,17.2
2023-04-23T11:00:00.341Z,17.2
2023-04-23T11:04:00.487Z,17.2
2023-04-23T11:08:11.046Z,17.2
2023-04-23T11:12:00.356Z,17.2
2023-04-23T11:16:00.387Z,17.2
2023-04-23T11:20:00.374Z,17.2
2023-04-23T11:24:00.355Z,17.2
2023-04-23T11:28:00.363Z,17.2
2023-04-23T11:32:02.967Z,17.2
2023-04-23T11:36:00.347Z,17.2
2023-04-23T11:40:00.345Z,17.2
2023-04-23T11:44:00.340Z,17.2
2023-04-23T11:48:00.469Z,17.2
2023-04-23T11:52:00.362Z,17.2
2023-04-23T11:56:00.359Z,17.2
2023-04-23T12:00:00.338Z,17.2
2023-04-23T12:04:00.575Z,17.2
2023-04-23T12:08:00.362Z,17.2
2023-04-23T12:12:00.340Z,17.2
2023-04-23T12:16:00.385Z,17.2
2023-04-23T12:20:00.346Z,17.2
2023-04-23T12:24:00.345Z,17.2
2023-04-23T12:28:00.334Z,17.2
2023-04-23T12:32:00.372Z,17.2
2023-04-23T12:36:00.359Z,17.2
2023-04-23T12:40:00.350Z,17.2
2023-04-23T12:44:00.361Z,17.2
2023-04-23T12:48:00.351Z,17.2
2023-04-23T12:52:00.371Z,17.2
2023-04-23T12:56:00.339Z,17.2
2023-04-23T13:00:00.361Z,17.2
2023-04-23T13:04:00.401Z,17.2
2023-04-23T13:08:00.359Z,17.2
2023-04-23T13:12:00.991Z,17.2
2023-04-23T13:16:00.370Z,17.2
2023-04-23T13:20:00.363Z,17.2
2023-04-23T13:24:00.355Z,17.2
2023-04-23T13:28:00.338Z,17.2
2023-04-23T13:32:00.412Z,17.2
2023-04-23T13:36:00.368Z,17.2
2023-04-23T13:40:00.350Z,17.2
2023-04-23T13:44:00.372Z,17.2
2023-04-23T13:48:00.408Z,17.2
2023-04-23T13:52:00.374Z,17.2
2023-04-23T13:56:00.360Z,20.8
2023-04-23T14:00:00.351Z,20.6
2023-04-23T14:04:00.362Z,21.4
2023-04-23T14:08:00.357Z,21.3
2023-04-23T14:12:00.350Z,21.3
2023-04-23T14:16:03.429Z,21.7
2023-04-23T14:20:00.315Z,21.7
2023-04-23T14:24:00.340Z,21.7
2023-04-23T14:28:00.337Z,21.7
2023-04-23T14:32:00.374Z,19.8
2023-04-23T14:36:00.390Z,21.1
2023-04-23T14:40:00.353Z,19.3
2023-04-23T14:44:00.372Z,20.5
2023-04-23T14:48:00.361Z,20.9
2023-04-23T14:52:00.368Z,21.5
2023-04-23T14:56:00.356Z,21.0
2023-04-23T15:00:00.337Z,21.4
2023-04-23T15:04:00.445Z,21.8
2023-04-23T15:08:00.353Z,20.5
2023-04-23T15:12:00.347Z,20.5
2023-04-23T15:16:00.362Z,19.8
2023-04-23T15:20:00.369Z,19.2
2023-04-23T15:24:00.331Z,21.1
2023-04-23T15:28:00.336Z,21.0
2023-04-23T15:32:00.367Z,21.4
2023-04-23T15:36:00.395Z,21.3
2023-04-23T15:40:00.343Z,20.7
2023-04-23T15:44:00.369Z,19.8
2023-04-23T15:48:00.375Z,19.3
2023-04-23T15:52:00.370Z,19.3
2023-04-23T15:56:00.335Z,18.8
2023-04-23T16:00:00.505Z,18.5
2023-04-23T16:08:00.342Z,18.7
2023-04-23T16:12:00.321Z,18.1
2023-04-23T16:16:00.328Z,18.3
2023-04-23T16:20:00.351Z,18.1
2023-04-23T16:24:00.332Z,18.1
2023-04-23T16:28:00.348Z,17.7
2023-04-23T16:32:00.343Z,17.2
2023-04-23T16:36:00.336Z,17.0
2023-04-23T16:40:00.366Z,17.1
2023-04-23T16:44:00.346Z,17.2
2023-04-23T16:48:00.355Z,16.9
2023-04-23T16:52:00.358Z,16.5
2023-04-23T16:56:00.335Z,15.9
2023-04-23T17:00:00.363Z,15.5
2023-04-23T17:04:00.436Z,15.1
2023-04-23T17:08:00.372Z,14.8
2023-04-23T17:12:00.341Z,14.6
2023-04-23T17:16:00.409Z,14.3
2023-04-23T17:20:00.355Z,14.2
2023-04-23T17:24:00.352Z,13.9
2023-04-23T17:28:00.340Z,13.8
2023-04-23T17:32:01.258Z,13.8
2023-04-23T17:36:00.364Z,13.8
2023-04-23T17:40:00.356Z,13.6
2023-04-23T17:44:00.375Z,13.6
2023-04-23T17:48:00.407Z,13.5
2023-04-23T17:52:00.362Z,13.4
2023-04-23T17:56:00.400Z,13.2
2023-04-23T18:00:00.346Z,13.2
2023-04-23T18:04:00.626Z,13.1
2023-04-23T18:08:00.333Z,13.0
2023-04-23T18:12:00.342Z,12.9
2023-04-23T18:16:00.364Z,12.7
2023-04-23T18:20:00.318Z,12.5
2023-04-23T18:24:00.334Z,12.5
2023-04-23T18:28:00.335Z,12.4
2023-04-23T18:32:00.353Z,12.2
2023-04-23T18:36:00.344Z,11.9
2023-04-23T18:40:00.334Z,11.7
2023-04-23T18:44:00.605Z,11.3
2023-04-23T18:48:00.446Z,11.4
2023-04-23T18:52:00.337Z,11.2
2023-04-23T18:56:00.351Z,11.1
2023-04-23T19:00:00.320Z,10.9
2023-04-23T19:04:00.376Z,10.9
2023-04-23T19:08:00.336Z,10.8
2023-04-23T19:12:00.341Z,10.9
2023-04-23T19:16:00.399Z,10.8
2023-04-23T19:20:00.356Z,10.6
2023-04-23T19:24:00.332Z,10.5
2023-04-23T19:28:00.339Z,10.3
2023-04-23T19:32:00.317Z,10.2
2023-04-23T19:36:00.347Z,10.3
2023-04-23T19:40:00.334Z,10.2
2023-04-23T19:44:00.366Z,10.1
2023-04-23T19:48:00.435Z,10.2
2023-04-23T19:52:00.344Z,10.0
2023-04-23T19:56:00.333Z,9.9
2023-04-23T20:00:00.349Z,9.7
2023-04-23T20:04:00.375Z,9.4
2023-04-23T20:08:00.335Z,9.4
2023-04-23T20:12:00.339Z,9.3
2023-04-23T20:16:00.340Z,9.2
2023-04-23T20:20:00.348Z,9.1
2023-04-23T20:24:00.319Z,9.2
2023-04-23T20:28:00.352Z,9.3
2023-04-23T20:32:00.399Z,9.3
2023-04-23T20:36:00.347Z,9.1
2023-04-23T20:40:00.362Z,9.1
2023-04-23T20:44:00.336Z,9.3
2023-04-23T20:48:00.411Z,9.3
2023-04-23T20:52:00.331Z,9.1
2023-04-23T20:56:00.321Z,9.0
2023-04-23T21:00:00.331Z,8.9
2023-04-23T21:04:00.659Z,8.8
2023-04-23T21:08:00.335Z,8.6
2023-04-23T21:12:00.347Z,8.6
2023-04-23T21:16:00.378Z,8.7
2023-04-23T21:20:00.333Z,8.7
2023-04-23T21:24:00.333Z,8.4
2023-04-23T21:28:00.331Z,8.4
2023-04-23T21:32:00.338Z,8.4
2023-04-23T21:36:00.330Z,8.3
2023-04-23T21:40:00.348Z,8.3
2023-04-23T21:44:00.315Z,8.4
2023-04-23T21:48:00.364Z,8.4
2023-04-23T21:52:00.336Z,8.3
2023-04-23T21:56:00.332Z,8.1
2023-04-23T22:00:00.326Z,8.1
2023-04-23T22:04:00.474Z,8.1
2023-04-23T22:08:00.328Z,8.0
2023-04-23T22:12:01.947Z,7.9
2023-04-23T22:16:00.398Z,8.1
2023-04-23T22:20:00.345Z,8.0
2023-04-23T22:24:00.337Z,8.0
2023-04-23T22:28:00.342Z,7.9
2023-04-23T22:32:00.391Z,7.9
2023-04-23T22:36:00.318Z,7.9
2023-04-23T22:40:00.362Z,8.1
2023-04-23T22:44:00.321Z,8.1
2023-04-23T22:48:00.414Z,8.2
2023-04-23T22:52:00.337Z,8.2
2023-04-23T22:56:00.375Z,8.2
2023-04-23T23:00:00.344Z,8.1
2023-04-23T23:04:00.386Z,8.0
2023-04-23T23:08:00.337Z,8.0
2023-04-23T23:12:00.328Z,8.1
2023-04-23T23:16:00.595Z,8.1
2023-04-23T23:20:00.333Z,7.9
2023-04-23T23:24:00.346Z,8.0
2023-04-23T23:28:00.355Z,8.2
2023-04-23T23:32:00.345Z,8.2
2023-04-23T23:36:00.338Z,8.2
2023-04-23T23:40:00.379Z,8.1
2023-04-23T23:44:00.340Z,8.1
2023-04-23T23:48:00.399Z,7.9
2023-04-23T23:52:00.323Z,7.8
2023-04-23T23:56:00.351Z,7.9
